createdAt,value
2023-02-04T00:01:58.529Z,23.27
2023-02-04T00:07:00.300Z,25.27
2023-02-04T00:12:02.461Z,21.55
2023-02-04T00:17:04.235Z,24.05
2023-02-04T00:22:07.741Z,27.65
2023-02-04T00:27:09.566Z,25.45
2023-02-04T00:32:11.684Z,28.65
2023-02-04T00:37:13.666Z,22.65
2023-02-04T00:42:15.968Z,22.75
2023-02-04T00:47:17.771Z,23.98
2023-02-04T00:52:19.555Z,21.52
2023-02-04T00:57:21.613Z,33.65
2023-02-04T01:02:23.416Z,26.13
2023-02-04T01:07:25.265Z,31.42
2023-02-04T01:12:28.755Z,24.77
2023-02-04T01:17:31.124Z,27.55
2023-02-04T01:22:33.029Z,31.75
2023-02-04T01:27:34.989Z,22.25
2023-02-04T01:32:36.787Z,31.15
2023-02-04T01:37:38.776Z,24.67
2023-02-04T01:42:41.051Z,28.77
2023-02-04T01:47:44.229Z,25.73
2023-02-04T01:52:46.901Z,35.30
2023-02-04T01:57:52.921Z,28.45
2023-02-04T02:02:55.256Z,16.83
2023-02-04T02:07:58.924Z,17.35
2023-02-04T02:13:01.183Z,17.52
2023-02-04T02:18:03.409Z,13.98
2023-02-04T02:23:20.127Z,12.38
2023-02-04T02:28:23.963Z,11.32
2023-02-04T02:33:26.437Z,13.50
2023-02-04T02:38:28.283Z,9.40
2023-02-04T02:43:30.582Z,8.68
2023-02-04T02:48:32.674Z,9.25
2023-02-04T02:53:34.636Z,9.75
2023-02-04T02:58:36.756Z,15.65
2023-02-04T03:03:51.163Z,11.15
2023-02-04T03:08:56.004Z,11.85
2023-02-04T03:14:01.033Z,12.07
2023-02-04T03:19:04.767Z,10.18
2023-02-04T03:24:07.369Z,13.60
2023-02-04T03:29:12.529Z,6.85
2023-02-04T03:34:14.463Z,12.57
2023-02-04T03:39:16.475Z,8.18
2023-02-04T03:44:18.874Z,10.43
2023-02-04T03:49:21.125Z,14.27
2023-02-04T03:54:22.936Z,13.07
2023-02-04T03:59:24.691Z,11.50
2023-02-04T04:04:26.450Z,11.80
2023-02-04T04:09:28.262Z,23.25
2023-02-04T04:14:31.352Z,21.38
2023-02-04T04:19:33.520Z,16.80
2023-02-04T04:24:35.290Z,17.40
2023-02-04T04:29:37.087Z,18.27
2023-02-04T04:34:39.000Z,21.80
2023-02-04T04:39:40.950Z,18.10
2023-02-04T04:44:42.723Z,16.00
2023-02-04T04:49:44.672Z,18.05
2023-02-04T04:54:46.879Z,16.98
2023-02-04T04:59:48.699Z,15.63
2023-02-04T05:04:50.584Z,19.35
2023-02-04T05:09:52.533Z,17.33
2023-02-04T05:14:54.320Z,21.70
2023-02-04T05:19:56.234Z,31.45
2023-02-04T05:24:58.230Z,20.88
2023-02-04T05:30:00.046Z,18.02
2023-02-04T05:35:01.955Z,22.55
2023-02-04T05:40:04.217Z,18.27
2023-02-04T05:45:06.281Z,25.30
2023-02-04T05:50:08.862Z,27.20
2023-02-04T05:55:12.205Z,22.73
2023-02-04T06:00:14.442Z,27.20
2023-02-04T06:05:16.809Z,21.30
2023-02-04T06:10:18.845Z,20.33
2023-02-04T06:15:20.827Z,26.83
2023-02-04T06:20:22.602Z,27.10
2023-02-04T06:25:24.433Z,17.60
2023-02-04T06:30:26.262Z,21.92
2023-02-04T06:35:28.060Z,21.60
2023-02-04T06:40:30.047Z,23.95
2023-02-04T06:45:32.607Z,34.28
2023-02-04T06:50:34.465Z,27.48
2023-02-04T06:55:36.322Z,29.77
2023-02-04T07:00:38.356Z,28.55
2023-02-04T07:05:40.236Z,23.63
2023-02-04T07:10:42.016Z,28.65
2023-02-04T07:15:43.804Z,31.67
2023-02-04T07:20:46.122Z,37.13
2023-02-04T07:25:49.306Z,35.00
2023-02-04T07:30:51.417Z,40.05
2023-02-04T07:35:53.255Z,44.17
2023-02-04T07:40:55.350Z,40.85
2023-02-04T07:45:57.655Z,42.25
2023-02-04T07:50:59.465Z,39.72
2023-02-04T07:56:01.744Z,33.80
2023-02-04T08:01:03.865Z,36.92
2023-02-04T08:06:05.854Z,45.95
2023-02-04T08:11:07.903Z,38.92
2023-02-04T08:16:11.822Z,40.45
2023-02-04T08:21:13.858Z,44.50
2023-02-04T08:26:15.661Z,45.08
2023-02-04T08:31:17.628Z,38.08
2023-02-04T08:36:19.617Z,33.60
2023-02-04T08:41:21.398Z,34.05
2023-02-04T08:46:23.229Z,27.33
2023-02-04T08:51:25.325Z,31.75
2023-02-04T08:56:27.217Z,37.47
2023-02-04T09:01:29.055Z,31.30
2023-02-04T09:06:30.933Z,33.15
2023-02-04T09:11:32.745Z,27.65
2023-02-04T09:16:34.985Z,25.42
2023-02-04T09:21:36.817Z,43.28
2023-02-04T09:26:38.617Z,34.22
2023-02-04T09:31:40.702Z,30.15
2023-02-04T09:36:42.557Z,27.35
2023-02-04T09:41:44.492Z,32.63
2023-02-04T09:46:52.678Z,38.58
2023-02-04T09:51:55.349Z,34.25
2023-02-04T09:56:59.447Z,37.38
2023-02-04T10:02:02.896Z,33.00
2023-02-04T10:07:12.336Z,34.70
2023-02-04T10:12:14.647Z,29.38
2023-02-04T10:17:22.014Z,33.50
2023-02-04T10:22:23.929Z,28.35
2023-02-04T10:27:25.846Z,23.67
2023-02-04T10:32:33.710Z,25.27
2023-02-04T10:37:35.548Z,32.53
2023-02-04T10:42:37.339Z,31.30
2023-02-04T10:47:39.210Z,29.67
2023-02-04T10:52:44.570Z,29.42
2023-02-04T10:57:49.280Z,19.55
2023-02-04T11:02:59.194Z,26.45
2023-02-04T11:08:02.433Z,30.97
2023-02-04T11:13:07.080Z,24.30
2023-02-04T11:18:14.012Z,29.00
2023-02-04T11:23:17.345Z,24.50
2023-02-04T11:28:26.529Z,24.55
2023-02-04T11:33:39.077Z,14.35
2023-02-04T11:38:46.909Z,18.65
2023-02-04T11:43:51.978Z,17.42
2023-02-04T11:48:55.634Z,18.20
2023-02-04T11:53:57.513Z,14.73
2023-02-04T11:58:59.465Z,13.82
2023-02-04T12:04:04.243Z,10.88
2023-02-04T12:09:24.397Z,7.13
2023-02-04T12:14:36.698Z,9.88
2023-02-04T12:19:38.673Z,9.45
2023-02-04T12:24:40.513Z,11.88
2023-02-04T12:29:42.294Z,7.18
2023-02-04T12:34:44.091Z,16.83
2023-02-04T12:39:45.910Z,8.43
2023-02-04T12:44:47.720Z,11.27
2023-02-04T12:49:49.724Z,8.73
2023-02-04T12:54:51.692Z,7.15
2023-02-04T12:59:53.560Z,9.10
2023-02-04T13:04:55.362Z,10.43
2023-02-04T13:09:57.569Z,5.85
2023-02-04T13:14:59.434Z,6.55
2023-02-04T13:20:01.549Z,6.97
2023-02-04T13:25:04.805Z,7.28
2023-02-04T13:30:11.429Z,9.05
2023-02-04T13:35:15.662Z,8.05
2023-02-04T13:40:17.897Z,9.13
2023-02-04T13:45:20.050Z,10.52
2023-02-04T13:50:21.882Z,10.65
2023-02-04T13:55:24.554Z,10.32
2023-02-04T14:00:26.388Z,13.13
2023-02-04T14:05:28.233Z,12.82
2023-02-04T14:10:30.436Z,15.95
2023-02-04T14:15:34.727Z,27.15
2023-02-04T14:20:36.949Z,18.55
2023-02-04T14:25:39.300Z,18.30
2023-02-04T14:30:41.414Z,17.63
2023-02-04T14:35:43.463Z,18.85
2023-02-04T14:40:45.913Z,26.10
2023-02-04T14:45:47.712Z,20.33
2023-02-04T14:50:49.662Z,24.00
2023-02-04T14:55:51.602Z,24.90
2023-02-04T15:00:53.762Z,16.90
2023-02-04T15:05:55.798Z,19.83
2023-02-04T15:10:57.730Z,16.15
2023-02-04T15:15:59.724Z,23.80
2023-02-04T15:21:01.976Z,18.10
2023-02-04T15:26:04.300Z,20.35
2023-02-04T15:31:06.255Z,24.50
2023-02-04T15:36:08.523Z,18.08
2023-02-04T15:41:10.403Z,18.80
2023-02-04T15:46:12.807Z,21.08
2023-02-04T15:51:14.726Z,21.38
2023-02-04T15:56:16.777Z,23.13
2023-02-04T16:01:20.036Z,26.48
2023-02-04T16:06:22.934Z,29.65
2023-02-04T16:11:24.735Z,31.58
2023-02-04T16:16:26.578Z,31.63
2023-02-04T16:21:28.513Z,28.52
2023-02-04T16:26:33.201Z,34.83
2023-02-04T16:31:35.054Z,29.98
2023-02-04T16:36:36.864Z,33.63
2023-02-04T16:41:38.647Z,30.65
2023-02-04T16:46:40.743Z,34.88
2023-02-04T16:51:42.709Z,35.20
2023-02-04T16:56:44.498Z,31.67
2023-02-04T17:01:46.486Z,33.40
2023-02-04T17:06:48.421Z,45.15
2023-02-04T17:11:50.724Z,39.22
2023-02-04T17:16:52.628Z,50.08
2023-02-04T17:21:54.402Z,62.47
2023-02-04T17:26:57.781Z,59.72
2023-02-04T17:31:59.569Z,152.82
2023-02-04T17:37:01.365Z,46.33
2023-02-04T17:42:03.360Z,31.75
2023-02-04T17:47:05.257Z,30.52
2023-02-04T17:52:07.112Z,34.00
2023-02-04T17:57:20.769Z,35.47
2023-02-04T18:02:31.597Z,37.08
2023-02-04T18:07:34.191Z,39.25
2023-02-04T18:12:36.054Z,48.05
2023-02-04T18:17:37.829Z,39.88
2023-02-04T18:22:39.747Z,39.58
2023-02-04T18:27:41.582Z,47.53
2023-02-04T18:32:43.496Z,52.35
2023-02-04T18:37:51.304Z,40.08
2023-02-04T18:43:21.220Z,50.10
2023-02-04T18:48:23.710Z,33.85
2023-02-04T18:53:27.616Z,47.08
2023-02-04T18:58:45.099Z,57.03
2023-02-04T19:03:56.108Z,41.55
2023-02-04T19:09:36.625Z,45.05
2023-02-04T19:14:44.046Z,65.93
2023-02-04T19:19:58.502Z,47.25
2023-02-04T19:25:21.705Z,41.80
2023-02-04T19:30:29.704Z,38.03
2023-02-04T19:35:42.225Z,42.00
2023-02-04T19:40:53.132Z,41.40
2023-02-04T19:45:55.238Z,35.42
2023-02-04T19:50:57.285Z,44.95
2023-02-04T19:55:59.235Z,29.63
2023-02-04T20:01:08.296Z,33.92
2023-02-04T20:06:10.135Z,32.45
2023-02-04T20:11:18.030Z,34.70
2023-02-04T20:16:39.277Z,30.60
2023-02-04T20:21:41.151Z,31.23
2023-02-04T20:26:43.509Z,29.10
2023-02-04T20:31:45.376Z,30.02
2023-02-04T20:36:47.454Z,28.02
2023-02-04T20:41:49.476Z,27.23
2023-02-04T20:46:51.807Z,32.08
2023-02-04T20:52:02.821Z,31.20
2023-02-04T20:57:17.879Z,32.30
2023-02-04T21:02:23.255Z,32.20
2023-02-04T21:07:25.481Z,28.30
2023-02-04T21:12:30.110Z,36.72
2023-02-04T21:17:31.908Z,24.63
2023-02-04T21:22:34.115Z,27.05
2023-02-04T21:27:36.528Z,34.80
2023-02-04T21:32:38.925Z,25.15
2023-02-04T21:37:42.859Z,31.05
2023-02-04T21:42:44.803Z,26.60
2023-02-04T21:47:48.208Z,28.98
2023-02-04T21:52:50.361Z,29.33
2023-02-04T21:57:53.247Z,31.10
2023-02-04T22:02:55.205Z,30.08
2023-02-04T22:07:59.500Z,32.10
2023-02-04T22:13:01.776Z,29.45
2023-02-04T22:18:03.968Z,38.22
2023-02-04T22:23:06.130Z,31.92
2023-02-04T22:28:08.010Z,37.33
2023-02-04T22:33:11.629Z,26.98
2023-02-04T22:38:13.432Z,30.27
2023-02-04T22:43:15.968Z,31.52
2023-02-04T22:48:17.810Z,35.28
2023-02-04T22:53:22.136Z,31.48
2023-02-04T22:58:24.266Z,38.30
2023-02-04T23:03:26.036Z,35.05
2023-02-04T23:08:28.245Z,39.38
2023-02-04T23:13:30.183Z,36.65
2023-02-04T23:18:32.179Z,38.45
2023-02-04T23:23:34.197Z,42.10
2023-02-04T23:28:36.059Z,38.20
2023-02-04T23:33:37.948Z,41.92
2023-02-04T23:38:39.816Z,37.78
2023-02-04T23:43:41.734Z,38.92
2023-02-04T23:48:43.514Z,46.35
2023-02-04T23:53:45.783Z,40.28
2023-02-04T23:58:48.729Z,39.88
